createdAt,value
2022-10-24T00:00:47.193Z,100.00
2022-10-24T00:02:07.417Z,100.00
2022-10-24T00:03:09.983Z,100.00
2022-10-24T00:04:11.706Z,100.00
2022-10-24T00:05:14.593Z,100.00
2022-10-24T00:06:18.310Z,100.00
2022-10-24T00:07:20.141Z,100.00
2022-10-24T00:08:21.830Z,100.00
2022-10-24T00:09:23.460Z,100.00
2022-10-24T00:10:25.567Z,100.00
2022-10-24T00:11:28.574Z,100.00
2022-10-24T00:12:30.306Z,100.00
2022-10-24T00:13:31.931Z,100.00
2022-10-24T00:14:36.713Z,100.00
2022-10-24T00:15:40.052Z,100.00
2022-10-24T00:16:41.909Z,100.00
2022-10-24T00:17:43.594Z,100.00
2022-10-24T00:18:45.601Z,100.00
2022-10-24T00:19:47.484Z,100.00
2022-10-24T00:20:49.172Z,100.00
2022-10-24T00:21:51.247Z,100.00
2022-10-24T00:22:52.926Z,100.00
2022-10-24T00:23:54.789Z,100.00
2022-10-24T00:24:56.473Z,100.00
2022-10-24T00:26:01.947Z,100.00
2022-10-24T00:27:04.865Z,100.00
2022-10-24T00:28:06.676Z,100.00
2022-10-24T00:29:08.593Z,100.00
2022-10-24T00:30:10.690Z,100.00
2022-10-24T00:31:18.743Z,100.00
2022-10-24T00:32:20.628Z,100.00
2022-10-24T00:33:22.574Z,100.00
2022-10-24T00:34:24.388Z,100.00
2022-10-24T00:35:26.205Z,100.00
2022-10-24T00:36:28.817Z,100.00
2022-10-24T00:37:30.654Z,100.00
2022-10-24T00:38:32.320Z,100.00
2022-10-24T00:39:34.106Z,100.00
2022-10-24T00:40:35.823Z,100.00
2022-10-24T00:41:42.764Z,100.00
2022-10-24T00:42:44.966Z,100.00
2022-10-24T00:43:47.966Z,100.00
2022-10-24T00:44:53.762Z,100.00
2022-10-24T00:46:00.911Z,100.00
2022-10-24T00:47:08.142Z,100.00
2022-10-24T00:48:16.398Z,100.00
2022-10-24T00:49:22.751Z,100.00
2022-10-24T00:50:24.667Z,100.00
2022-10-24T00:51:33.833Z,100.00
2022-10-24T00:52:40.958Z,100.00
2022-10-24T00:53:47.582Z,100.00
2022-10-24T00:54:52.881Z,100.00
2022-10-24T00:55:59.357Z,100.00
2022-10-24T00:57:34.206Z,100.00
2022-10-24T00:58:39.172Z,100.00
2022-10-24T00:59:45.197Z,100.00
2022-10-24T01:00:47.108Z,100.00
2022-10-24T01:01:49.318Z,100.00
2022-10-24T01:02:51.059Z,100.00
2022-10-24T01:03:52.858Z,100.00
2022-10-24T01:04:55.068Z,100.00
2022-10-24T01:06:17.209Z,100.00
2022-10-24T01:07:33.665Z,100.00
2022-10-24T01:08:38.162Z,100.00
2022-10-24T01:10:22.105Z,100.00
2022-10-24T01:11:40.308Z,100.00
2022-10-24T01:12:58.338Z,100.00
2022-10-24T01:14:21.062Z,100.00
2022-10-24T01:15:42.787Z,100.00
2022-10-24T01:17:02.424Z,100.00
2022-10-24T01:18:16.394Z,100.00
2022-10-24T01:19:48.996Z,100.00
2022-10-24T01:21:13.969Z,100.00
2022-10-24T01:22:25.099Z,100.00
2022-10-24T01:23:57.781Z,100.00
2022-10-24T01:25:15.110Z,100.00
2022-10-24T01:26:34.975Z,100.00
2022-10-24T01:27:45.649Z,100.00
2022-10-24T01:29:19.992Z,100.00
2022-10-24T01:30:21.996Z,100.00
2022-10-24T01:31:40.168Z,100.00
2022-10-24T01:32:45.368Z,100.00
2022-10-24T01:34:00.291Z,100.00
2022-10-24T01:35:16.500Z,100.00
2022-10-24T01:36:31.895Z,100.00
2022-10-24T01:37:45.591Z,100.00
2022-10-24T01:39:00.827Z,100.00
2022-10-24T01:40:50.877Z,100.00
2022-10-24T01:41:57.427Z,100.00
2022-10-24T01:43:08.196Z,100.00
2022-10-24T01:44:23.745Z,100.00
2022-10-24T01:45:34.708Z,100.00
2022-10-24T01:46:43.037Z,100.00
2022-10-24T01:47:53.536Z,100.00
2022-10-24T01:49:08.049Z,100.00
2022-10-24T01:50:13.940Z,100.00
2022-10-24T01:51:22.316Z,100.00
2022-10-24T01:52:31.424Z,100.00
2022-10-24T01:53:36.718Z,100.00
2022-10-24T01:54:40.045Z,100.00
2022-10-24T01:55:44.301Z,100.00
2022-10-24T01:56:46.035Z,100.00
2022-10-24T01:57:47.699Z,100.00
2022-10-24T01:58:49.455Z,100.00
2022-10-24T01:59:51.090Z,100.00
2022-10-24T02:01:00.256Z,100.00
2022-10-24T02:02:09.651Z,100.00
2022-10-24T02:03:27.408Z,100.00
2022-10-24T02:04:33.346Z,100.00
2022-10-24T02:05:45.077Z,100.00
2022-10-24T02:06:49.544Z,100.00
2022-10-24T02:07:56.365Z,100.00
2022-10-24T02:10:22.971Z,100.00
2022-10-24T02:11:24.720Z,100.00
2022-10-24T02:12:28.822Z,100.00
2022-10-24T02:13:40.601Z,100.00
2022-10-24T02:14:51.835Z,100.00
2022-10-24T02:15:58.520Z,100.00
2022-10-24T02:17:01.667Z,100.00
2022-10-24T02:18:03.830Z,100.00
2022-10-24T02:19:06.239Z,100.00
2022-10-24T02:20:08.993Z,100.00
2022-10-24T02:21:35.735Z,100.00
2022-10-24T02:23:05.963Z,100.00
2022-10-24T02:24:14.063Z,100.00
2022-10-24T02:25:33.577Z,100.00
2022-10-24T02:26:56.389Z,100.00
2022-10-24T02:28:22.344Z,100.00
2022-10-24T02:29:40.143Z,100.00
2022-10-24T02:30:52.112Z,100.00
2022-10-24T02:31:58.270Z,100.00
2022-10-24T02:33:01.727Z,100.00
2022-10-24T02:34:08.921Z,100.00
2022-10-24T02:35:15.437Z,100.00
2022-10-24T02:36:23.875Z,100.00
2022-10-24T02:37:29.061Z,100.00
2022-10-24T02:38:36.479Z,100.00
2022-10-24T02:39:41.068Z,100.00
2022-10-24T02:40:46.054Z,100.00
2022-10-24T02:41:51.277Z,100.00
2022-10-24T02:42:58.424Z,100.00
2022-10-24T02:44:03.523Z,100.00
2022-10-24T02:45:08.045Z,100.00
2022-10-24T02:46:12.356Z,100.00
2022-10-24T02:47:17.774Z,100.00
2022-10-24T02:48:27.306Z,100.00
2022-10-24T02:49:29.102Z,100.00
2022-10-24T02:50:32.667Z,100.00
2022-10-24T02:51:40.013Z,100.00
2022-10-24T02:52:44.670Z,100.00
2022-10-24T02:53:46.836Z,100.00
2022-10-24T02:54:48.499Z,100.00
2022-10-24T02:55:50.400Z,100.00
2022-10-24T02:57:01.468Z,100.00
2022-10-24T02:58:03.584Z,100.00
2022-10-24T02:59:05.397Z,100.00
2022-10-24T03:00:08.315Z,100.00
2022-10-24T03:01:10.592Z,100.00
2022-10-24T03:02:12.400Z,100.00
2022-10-24T03:03:14.485Z,100.00
2022-10-24T03:04:16.261Z,100.00
2022-10-24T03:05:17.999Z,100.00
2022-10-24T03:06:19.675Z,100.00
2022-10-24T03:07:21.543Z,100.00
2022-10-24T03:08:23.309Z,100.00
2022-10-24T03:09:30.176Z,100.00
2022-10-24T03:10:31.827Z,100.00
2022-10-24T03:11:33.865Z,100.00
2022-10-24T03:12:35.591Z,100.00
2022-10-24T03:13:40.914Z,100.00
2022-10-24T03:14:45.631Z,100.00
2022-10-24T03:17:03.987Z,100.00
2022-10-24T03:18:12.297Z,100.00
2022-10-24T03:19:14.947Z,100.00
2022-10-24T03:20:17.120Z,100.00
2022-10-24T03:21:20.986Z,100.00
2022-10-24T03:22:24.689Z,100.00
2022-10-24T03:23:28.905Z,100.00
2022-10-24T03:24:43.487Z,100.00
2022-10-24T03:25:46.138Z,100.00
2022-10-24T03:26:47.772Z,100.00
2022-10-24T03:27:49.422Z,100.00
2022-10-24T03:28:51.189Z,100.00
2022-10-24T03:29:52.824Z,100.00
2022-10-24T03:30:56.302Z,100.00
2022-10-24T03:31:57.952Z,100.00
2022-10-24T03:32:59.741Z,100.00
2022-10-24T03:34:01.556Z,100.00
2022-10-24T03:35:03.433Z,100.00
2022-10-24T03:36:06.669Z,100.00
2022-10-24T03:37:08.632Z,100.00
2022-10-24T03:38:10.533Z,100.00
2022-10-24T03:39:12.936Z,100.00
2022-10-24T03:40:14.680Z,100.00
2022-10-24T03:41:16.476Z,100.00
2022-10-24T03:42:18.181Z,100.00
2022-10-24T03:43:20.403Z,100.00
2022-10-24T03:44:22.162Z,100.00
2022-10-24T03:45:23.832Z,100.00
2022-10-24T03:46:25.676Z,100.00
2022-10-24T03:47:27.645Z,100.00
2022-10-24T03:48:29.298Z,100.00
2022-10-24T03:49:32.285Z,100.00
2022-10-24T03:50:34.122Z,100.00
2022-10-24T03:51:36.912Z,100.00
2022-10-24T03:52:38.587Z,100.00
2022-10-24T03:53:40.264Z,100.00
2022-10-24T03:54:42.040Z,100.00
2022-10-24T03:55:43.728Z,100.00
2022-10-24T03:56:47.900Z,100.00
2022-10-24T03:57:49.580Z,100.00
2022-10-24T03:58:51.345Z,100.00
2022-10-24T03:59:53.150Z,100.00
2022-10-24T04:00:58.071Z,100.00
2022-10-24T04:02:01.445Z,100.00
2022-10-24T04:03:03.528Z,100.00
2022-10-24T04:04:05.560Z,100.00
2022-10-24T04:05:07.865Z,100.00
2022-10-24T04:06:09.824Z,100.00
2022-10-24T04:07:12.331Z,100.00
2022-10-24T04:08:14.008Z,100.00
2022-10-24T04:09:15.661Z,100.00
2022-10-24T04:10:17.413Z,100.00
2022-10-24T04:11:19.195Z,100.00
2022-10-24T04:12:21.016Z,100.00
2022-10-24T04:13:22.715Z,100.00
2022-10-24T04:14:24.406Z,100.00
2022-10-24T04:15:26.406Z,100.00
2022-10-24T04:16:28.299Z,100.00
2022-10-24T04:17:30.108Z,100.00
2022-10-24T04:18:31.778Z,100.00
2022-10-24T04:19:33.910Z,100.00
2022-10-24T04:20:36.248Z,100.00
2022-10-24T04:21:38.226Z,100.00
2022-10-24T04:22:39.894Z,100.00
2022-10-24T04:23:42.651Z,100.00
2022-10-24T04:24:44.538Z,100.00
2022-10-24T04:25:46.761Z,100.00
2022-10-24T04:26:48.499Z,100.00
2022-10-24T04:27:50.134Z,100.00
2022-10-24T04:28:51.797Z,100.00
2022-10-24T04:29:53.639Z,100.00
2022-10-24T04:30:58.927Z,100.00
2022-10-24T04:32:00.720Z,100.00
2022-10-24T04:33:02.426Z,100.00
2022-10-24T04:34:05.683Z,100.00
2022-10-24T04:35:08.469Z,100.00
2022-10-24T04:36:10.223Z,100.00
2022-10-24T04:37:11.853Z,100.00
2022-10-24T04:38:13.489Z,100.00
2022-10-24T04:39:15.191Z,100.00
2022-10-24T04:40:17.009Z,100.00
2022-10-24T04:41:18.816Z,100.00
2022-10-24T04:42:21.596Z,100.00
2022-10-24T04:43:24.585Z,100.00
2022-10-24T04:44:26.328Z,100.00
2022-10-24T04:45:27.978Z,100.00
2022-10-24T04:46:29.870Z,100.00
2022-10-24T04:47:31.777Z,100.00
2022-10-24T04:48:33.722Z,100.00
2022-10-24T04:49:35.399Z,100.00
2022-10-24T04:50:40.289Z,100.00
2022-10-24T04:51:42.009Z,100.00
2022-10-24T04:52:43.691Z,100.00
2022-10-24T04:53:45.645Z,100.00
2022-10-24T04:54:47.310Z,100.00
2022-10-24T04:55:49.056Z,100.00
2022-10-24T04:56:50.747Z,100.00
2022-10-24T04:57:52.405Z,100.00
2022-10-24T04:58:54.097Z,100.00
2022-10-24T04:59:55.855Z,100.00
2022-10-24T05:00:57.552Z,100.00
2022-10-24T05:01:59.308Z,100.00
2022-10-24T05:03:01.087Z,100.00
2022-10-24T05:04:03.307Z,100.00
2022-10-24T05:05:06.093Z,100.00
2022-10-24T05:06:07.827Z,100.00
2022-10-24T05:07:09.683Z,100.00
2022-10-24T05:08:11.660Z,100.00
2022-10-24T05:09:14.432Z,100.00
2022-10-24T05:10:17.325Z,100.00
2022-10-24T05:11:19.094Z,100.00
2022-10-24T05:12:20.833Z,100.00
2022-10-24T05:13:22.559Z,100.00
2022-10-24T05:14:24.751Z,100.00
2022-10-24T05:15:26.563Z,100.00
2022-10-24T05:16:28.230Z,100.00
2022-10-24T05:17:29.992Z,100.00
2022-10-24T05:18:32.430Z,100.00
2022-10-24T05:19:34.118Z,100.00
2022-10-24T05:20:35.898Z,100.00
2022-10-24T05:21:37.632Z,100.00
2022-10-24T05:22:40.424Z,100.00
2022-10-24T05:23:42.357Z,100.00
2022-10-24T05:24:44.055Z,100.00
2022-10-24T05:25:45.920Z,100.00
2022-10-24T05:26:47.596Z,100.00
2022-10-24T05:27:49.309Z,100.00
2022-10-24T05:28:52.623Z,100.00
2022-10-24T05:29:54.800Z,100.00
2022-10-24T05:30:56.556Z,100.00
2022-10-24T05:31:58.272Z,100.00
2022-10-24T05:32:59.948Z,100.00
2022-10-24T05:34:01.707Z,100.00
2022-10-24T05:35:04.271Z,100.00
2022-10-24T05:36:06.782Z,100.00
2022-10-24T05:37:08.714Z,100.00
2022-10-24T05:38:10.548Z,100.00
2022-10-24T05:39:12.197Z,100.00
2022-10-24T05:40:14.185Z,100.00
2022-10-24T05:41:15.848Z,100.00
2022-10-24T05:42:17.843Z,100.00
2022-10-24T05:43:20.129Z,100.00
2022-10-24T05:44:21.896Z,100.00
2022-10-24T05:45:23.900Z,100.00
2022-10-24T05:46:25.844Z,100.00
2022-10-24T05:47:29.273Z,100.00
2022-10-24T05:48:31.170Z,100.00
2022-10-24T05:49:34.161Z,100.00
2022-10-24T05:50:36.540Z,100.00
2022-10-24T05:51:38.177Z,100.00
2022-10-24T05:52:46.125Z,100.00
2022-10-24T05:53:49.037Z,100.00
2022-10-24T05:54:55.861Z,100.00
2022-10-24T05:56:08.424Z,100.00
2022-10-24T05:57:10.125Z,100.00
2022-10-24T05:58:11.783Z,100.00
2022-10-24T05:59:13.726Z,100.00
2022-10-24T06:00:16.794Z,100.00
2022-10-24T06:01:18.502Z,100.00
2022-10-24T06:02:21.414Z,100.00
2022-10-24T06:03:23.793Z,100.00
2022-10-24T06:04:25.487Z,100.00
2022-10-24T06:05:27.466Z,100.00
2022-10-24T06:06:29.163Z,100.00
2022-10-24T06:07:31.583Z,100.00
2022-10-24T06:08:37.334Z,100.00
2022-10-24T06:09:41.666Z,100.00
2022-10-24T06:10:50.875Z,100.00
2022-10-24T06:11:52.545Z,100.00
2022-10-24T06:12:54.251Z,100.00
2022-10-24T06:13:56.043Z,100.00
2022-10-24T06:14:59.872Z,100.00
2022-10-24T06:16:01.607Z,100.00
2022-10-24T06:17:05.512Z,100.00
2022-10-24T06:18:07.237Z,100.00
2022-10-24T06:19:09.088Z,100.00
2022-10-24T06:20:11.449Z,100.00
2022-10-24T06:21:13.727Z,100.00
2022-10-24T06:22:15.460Z,100.00
2022-10-24T06:23:17.196Z,100.00
2022-10-24T06:24:18.907Z,100.00
2022-10-24T06:25:20.661Z,100.00
2022-10-24T06:26:24.047Z,100.00
2022-10-24T06:27:26.170Z,100.00
2022-10-24T06:28:28.425Z,100.00
2022-10-24T06:29:30.274Z,100.00
2022-10-24T06:30:31.948Z,100.00
2022-10-24T06:31:35.657Z,100.00
2022-10-24T06:32:39.621Z,100.00
2022-10-24T06:33:43.957Z,100.00
2022-10-24T06:34:46.027Z,100.00
2022-10-24T06:35:48.205Z,100.00
2022-10-24T06:36:49.915Z,100.00
2022-10-24T06:37:51.748Z,100.00
2022-10-24T06:38:57.616Z,100.00
2022-10-24T06:39:59.558Z,100.00
2022-10-24T06:41:10.044Z,100.00
2022-10-24T06:42:11.685Z,100.00
2022-10-24T06:43:13.394Z,100.00
2022-10-24T06:44:15.708Z,100.00
2022-10-24T06:45:18.839Z,100.00
2022-10-24T06:46:23.402Z,100.00
2022-10-24T06:47:25.154Z,100.00
2022-10-24T06:48:26.848Z,100.00
2022-10-24T06:49:28.500Z,100.00
2022-10-24T06:50:30.213Z,100.00
2022-10-24T06:51:31.911Z,100.00
2022-10-24T06:52:33.786Z,100.00
2022-10-24T06:53:36.041Z,100.00
2022-10-24T06:54:39.094Z,100.00
2022-10-24T06:55:40.780Z,100.00
2022-10-24T06:56:42.613Z,100.00
2022-10-24T06:57:44.558Z,100.00
2022-10-24T06:58:47.073Z,100.00
2022-10-24T06:59:48.950Z,100.00
2022-10-24T07:00:51.082Z,100.00
2022-10-24T07:01:53.113Z,100.00
2022-10-24T07:02:54.920Z,100.00
2022-10-24T07:03:56.585Z,100.00
2022-10-24T07:04:58.605Z,100.00
2022-10-24T07:06:06.459Z,100.00
2022-10-24T07:07:14.474Z,100.00
2022-10-24T07:08:16.157Z,100.00
2022-10-24T07:09:17.825Z,100.00
2022-10-24T07:10:19.662Z,100.00
2022-10-24T07:11:22.165Z,100.00
2022-10-24T07:12:25.623Z,100.00
2022-10-24T07:13:27.370Z,100.00
2022-10-24T07:14:29.088Z,100.00
2022-10-24T07:15:30.748Z,100.00
2022-10-24T07:16:33.141Z,100.00
2022-10-24T07:17:43.054Z,100.00
2022-10-24T07:18:45.735Z,100.00
2022-10-24T07:19:53.941Z,100.00
2022-10-24T07:21:00.711Z,100.00
2022-10-24T07:22:02.543Z,100.00
2022-10-24T07:23:04.244Z,100.00
2022-10-24T07:24:06.512Z,100.00
2022-10-24T07:25:09.089Z,100.00
2022-10-24T07:26:14.914Z,100.00
2022-10-24T07:27:17.527Z,100.00
2022-10-24T07:28:19.145Z,100.00
2022-10-24T07:29:20.814Z,100.00
2022-10-24T07:30:22.639Z,100.00
2022-10-24T07:31:27.491Z,100.00
2022-10-24T07:32:29.320Z,100.00
2022-10-24T07:33:31.413Z,100.00
2022-10-24T07:34:33.061Z,100.00
2022-10-24T07:35:34.720Z,100.00
2022-10-24T07:36:40.149Z,100.00
2022-10-24T07:37:45.607Z,100.00
2022-10-24T07:38:49.856Z,100.00
2022-10-24T07:39:51.537Z,100.00
2022-10-24T07:40:53.367Z,100.00
2022-10-24T07:41:55.012Z,100.00
2022-10-24T07:42:56.809Z,100.00
2022-10-24T07:43:59.794Z,100.00
2022-10-24T07:45:02.771Z,100.00
2022-10-24T07:46:17.768Z,100.00
2022-10-24T07:47:19.515Z,100.00
2022-10-24T07:48:21.250Z,100.00
2022-10-24T07:49:23.521Z,100.00
2022-10-24T07:50:25.226Z,100.00
2022-10-24T07:51:28.519Z,100.00
2022-10-24T07:52:30.186Z,100.00
2022-10-24T07:53:31.785Z,100.00
2022-10-24T07:54:36.393Z,100.00
2022-10-24T07:55:40.926Z,100.00
2022-10-24T07:56:42.589Z,100.00
2022-10-24T07:57:44.486Z,100.00
2022-10-24T07:58:47.950Z,100.00
2022-10-24T07:59:49.660Z,100.00
2022-10-24T08:00:51.506Z,100.00
2022-10-24T08:01:53.122Z,100.00
2022-10-24T08:02:54.788Z,100.00
2022-10-24T08:03:57.450Z,100.00
2022-10-24T08:04:59.119Z,100.00
2022-10-24T08:06:04.233Z,100.00
2022-10-24T08:07:12.948Z,100.00
2022-10-24T08:09:45.409Z,100.00
2022-10-24T08:10:47.050Z,100.00
2022-10-24T08:11:48.740Z,100.00
2022-10-24T08:12:50.449Z,100.00
2022-10-24T08:13:54.128Z,100.00
2022-10-24T08:14:56.025Z,100.00
2022-10-24T08:15:57.833Z,100.00
2022-10-24T08:16:59.551Z,100.00
2022-10-24T08:18:01.189Z,100.00
2022-10-24T08:19:02.877Z,100.00
2022-10-24T08:20:07.139Z,100.00
2022-10-24T08:21:12.874Z,100.00
2022-10-24T08:22:14.741Z,100.00
2022-10-24T08:23:16.377Z,100.00
2022-10-24T08:24:18.033Z,100.00
2022-10-24T08:25:19.746Z,100.00
2022-10-24T08:26:24.181Z,100.00
2022-10-24T08:27:26.137Z,100.00
2022-10-24T08:28:27.748Z,100.00
2022-10-24T08:29:29.390Z,100.00
2022-10-24T08:30:31.464Z,100.00
2022-10-24T08:31:35.497Z,100.00
2022-10-24T08:32:38.208Z,100.00
2022-10-24T08:33:40.290Z,100.00
2022-10-24T08:34:42.055Z,100.00
2022-10-24T08:35:43.947Z,100.00
2022-10-24T08:36:46.990Z,100.00
2022-10-24T08:37:48.748Z,100.00
2022-10-24T08:38:50.686Z,100.00
2022-10-24T08:39:55.743Z,100.00
2022-10-24T08:40:58.420Z,100.00
2022-10-24T08:42:07.484Z,100.00
2022-10-24T08:43:11.915Z,100.00
2022-10-24T08:44:14.349Z,100.00
2022-10-24T08:45:42.813Z,100.00
2022-10-24T08:46:55.251Z,100.00
2022-10-24T08:48:09.080Z,100.00
2022-10-24T08:49:28.417Z,100.00
2022-10-24T08:50:35.943Z,100.00
2022-10-24T08:51:51.519Z,100.00
2022-10-24T08:53:07.462Z,100.00
2022-10-24T08:54:23.247Z,100.00
2022-10-24T08:55:49.630Z,100.00
2022-10-24T08:56:57.919Z,100.00
2022-10-24T08:58:01.950Z,100.00
2022-10-24T08:59:05.400Z,100.00
2022-10-24T09:00:26.956Z,100.00
2022-10-24T09:02:00.612Z,100.00
2022-10-24T09:05:02.078Z,100.00
2022-10-24T09:06:27.478Z,100.00
2022-10-24T09:07:29.315Z,100.00
2022-10-24T09:08:43.543Z,100.00
2022-10-24T09:09:51.037Z,100.00
2022-10-24T09:11:03.855Z,100.00
2022-10-24T09:12:13.857Z,100.00
2022-10-24T09:13:17.507Z,100.00
2022-10-24T09:14:23.161Z,100.00
2022-10-24T09:15:29.068Z,100.00
2022-10-24T09:16:30.904Z,100.00
2022-10-24T09:17:37.132Z,100.00
2022-10-24T09:18:42.943Z,100.00
2022-10-24T09:19:54.584Z,100.00
2022-10-24T09:20:56.931Z,100.00
2022-10-24T09:22:01.260Z,100.00
2022-10-24T09:23:06.282Z,100.00
2022-10-24T09:24:27.798Z,100.00
2022-10-24T09:25:35.392Z,100.00
2022-10-24T09:26:39.282Z,100.00
2022-10-24T09:27:42.157Z,100.00
2022-10-24T09:28:45.353Z,100.00
2022-10-24T09:29:47.239Z,100.00
2022-10-24T09:30:50.679Z,100.00
2022-10-24T09:31:52.337Z,100.00
2022-10-24T09:33:02.178Z,100.00
2022-10-24T09:34:04.230Z,100.00
2022-10-24T09:35:15.944Z,100.00
2022-10-24T09:36:21.924Z,100.00
2022-10-24T09:37:42.761Z,100.00
2022-10-24T09:38:46.858Z,100.00
2022-10-24T09:40:25.027Z,100.00
2022-10-24T09:41:30.113Z,100.00
2022-10-24T09:42:31.990Z,100.00
2022-10-24T09:43:50.893Z,100.00
2022-10-24T09:44:52.521Z,100.00
2022-10-24T09:46:26.605Z,100.00
2022-10-24T09:47:29.805Z,100.00
2022-10-24T09:48:44.961Z,100.00
2022-10-24T09:49:47.034Z,100.00
2022-10-24T09:50:51.717Z,100.00
2022-10-24T09:52:21.831Z,99.91
2022-10-24T09:53:38.514Z,99.09
2022-10-24T09:54:40.120Z,98.77
2022-10-24T09:55:46.723Z,98.90
2022-10-24T09:57:16.675Z,99.19
2022-10-24T09:58:22.191Z,99.83
2022-10-24T09:59:32.588Z,99.62
2022-10-24T10:00:36.617Z,97.97
2022-10-24T10:01:38.737Z,97.98
2022-10-24T10:03:23.977Z,97.38
2022-10-24T10:04:26.029Z,97.76
2022-10-24T10:05:42.448Z,97.93
2022-10-24T10:06:47.467Z,97.65
2022-10-24T10:07:50.961Z,97.79
2022-10-24T10:08:57.929Z,97.75
2022-10-24T10:10:25.310Z,97.23
2022-10-24T10:11:35.312Z,96.73
2022-10-24T10:12:42.454Z,96.71
2022-10-24T10:13:50.349Z,96.28
2022-10-24T10:14:52.605Z,96.03
2022-10-24T10:16:00.808Z,96.03
2022-10-24T10:17:06.645Z,96.05
2022-10-24T10:18:20.391Z,95.81
2022-10-24T10:19:22.190Z,95.70
2022-10-24T10:20:43.533Z,95.57
2022-10-24T10:21:59.665Z,95.31
2022-10-24T10:23:31.679Z,95.19
2022-10-24T10:24:40.444Z,95.65
2022-10-24T10:25:42.214Z,96.08
2022-10-24T10:26:45.829Z,95.91
2022-10-24T10:27:51.087Z,95.82
2022-10-24T10:29:25.030Z,95.61
2022-10-24T10:30:26.913Z,94.33
2022-10-24T10:31:44.076Z,94.74
2022-10-24T10:34:52.033Z,93.41
2022-10-24T10:36:08.107Z,93.38
2022-10-24T10:37:28.428Z,93.19
2022-10-24T10:38:51.027Z,93.06
2022-10-24T10:40:31.498Z,93.04
2022-10-24T10:41:58.501Z,92.99
2022-10-24T10:43:33.393Z,92.81
2022-10-24T10:45:14.390Z,92.56
2022-10-24T10:46:29.628Z,93.00
2022-10-24T10:48:07.347Z,92.66
2022-10-24T10:49:31.000Z,92.22
2022-10-24T10:50:43.754Z,90.90
2022-10-24T10:51:58.921Z,91.13
2022-10-24T10:53:30.167Z,90.22
2022-10-24T10:55:29.209Z,90.13
2022-10-24T10:57:00.309Z,89.52
2022-10-24T10:58:18.526Z,88.71
2022-10-24T10:59:51.188Z,87.76
2022-10-24T11:01:16.990Z,85.80
2022-10-24T11:02:21.814Z,85.25
2022-10-24T11:03:42.574Z,85.06
2022-10-24T11:05:16.491Z,84.14
2022-10-24T11:06:37.316Z,84.28
2022-10-24T11:08:02.592Z,83.25
2022-10-24T11:09:13.042Z,81.89
2022-10-24T11:10:23.187Z,81.05
2022-10-24T11:11:31.187Z,80.39
2022-10-24T11:12:41.157Z,79.08
2022-10-24T11:14:07.536Z,77.63
2022-10-24T11:15:26.393Z,77.78
2022-10-24T11:16:30.666Z,76.82
2022-10-24T11:17:47.972Z,76.21
2022-10-24T11:18:53.540Z,76.39
2022-10-24T11:20:14.740Z,74.56
2022-10-24T11:21:21.355Z,73.43
2022-10-24T11:22:32.365Z,74.11
2022-10-24T11:23:37.863Z,72.37
2022-10-24T11:24:50.884Z,71.10
2022-10-24T11:26:02.695Z,70.71
2022-10-24T11:27:15.990Z,70.56
2022-10-24T11:28:31.442Z,70.16
2022-10-24T11:29:57.829Z,71.34
2022-10-24T11:31:13.633Z,69.93
2022-10-24T11:32:23.967Z,69.59
2022-10-24T11:33:33.866Z,69.91
2022-10-24T11:34:51.423Z,69.47
2022-10-24T11:36:06.323Z,69.42
2022-10-24T11:37:18.768Z,67.97
2022-10-24T11:38:24.812Z,67.22
2022-10-24T11:39:29.925Z,67.18
2022-10-24T11:40:33.747Z,67.50
2022-10-24T11:41:48.269Z,67.44
2022-10-24T11:43:02.250Z,66.82
2022-10-24T11:44:26.415Z,66.48
2022-10-24T11:45:39.208Z,66.35
2022-10-24T11:46:48.718Z,65.97
2022-10-24T11:48:13.334Z,66.78
2022-10-24T11:49:33.366Z,66.12
2022-10-24T11:50:48.090Z,66.06
2022-10-24T11:52:05.961Z,65.13
2022-10-24T11:53:29.412Z,64.66
2022-10-24T11:54:42.807Z,63.67
2022-10-24T11:55:54.402Z,63.41
2022-10-24T11:57:04.499Z,64.40
2022-10-24T11:58:14.239Z,63.65
2022-10-24T11:59:24.370Z,62.05
2022-10-24T12:00:53.501Z,61.99
2022-10-24T12:01:55.018Z,62.05
2022-10-24T12:03:44.432Z,61.27
2022-10-24T12:04:57.873Z,59.32
2022-10-24T12:06:33.372Z,59.67
2022-10-24T12:08:06.519Z,59.37
2022-10-24T12:09:52.432Z,60.00
2022-10-24T12:11:19.058Z,59.37
2022-10-24T12:12:51.233Z,59.26
2022-10-24T12:14:28.175Z,57.99
2022-10-24T12:15:45.931Z,57.52
2022-10-24T12:17:16.960Z,57.61
2022-10-24T12:18:39.386Z,57.16
2022-10-24T12:19:44.852Z,56.85
2022-10-24T12:20:53.274Z,56.35
2022-10-24T12:22:01.508Z,55.65
2022-10-24T12:23:04.285Z,55.76
2022-10-24T12:24:30.256Z,55.88
2022-10-24T12:25:36.250Z,56.31
2022-10-24T12:26:38.009Z,56.00
2022-10-24T12:27:42.753Z,56.08
2022-10-24T12:28:56.014Z,56.70
2022-10-24T12:30:04.901Z,56.72
2022-10-24T12:31:14.114Z,55.71
2022-10-24T12:32:25.958Z,55.19
2022-10-24T12:33:27.818Z,55.18
2022-10-24T12:34:46.137Z,55.52
2022-10-24T12:35:54.534Z,55.85
2022-10-24T12:37:26.668Z,54.61
2022-10-24T12:38:28.200Z,55.21
2022-10-24T12:39:37.220Z,53.89
2022-10-24T12:40:44.965Z,53.80
2022-10-24T12:41:47.450Z,53.74
2022-10-24T12:42:52.057Z,53.92
2022-10-24T12:44:31.433Z,54.29
2022-10-24T12:45:33.608Z,54.36
2022-10-24T12:46:38.041Z,54.59
2022-10-24T12:47:39.946Z,55.00
2022-10-24T12:48:44.078Z,54.19
2022-10-24T12:49:48.751Z,54.23
2022-10-24T12:51:34.766Z,54.54
2022-10-24T12:52:36.275Z,55.07
2022-10-24T12:54:02.577Z,55.41
2022-10-24T12:55:24.203Z,55.68
2022-10-24T12:56:26.370Z,56.10
2022-10-24T12:57:37.731Z,56.23
2022-10-24T12:58:42.871Z,56.09
2022-10-24T12:59:48.944Z,56.12
2022-10-24T13:01:09.458Z,55.63
2022-10-24T13:02:11.091Z,55.67
2022-10-24T13:03:50.693Z,55.32
2022-10-24T13:05:16.472Z,54.66
2022-10-24T13:06:31.937Z,54.64
2022-10-24T13:08:01.440Z,54.70
2022-10-24T13:09:34.045Z,54.11
2022-10-24T13:10:47.138Z,53.09
2022-10-24T13:12:09.185Z,52.66
2022-10-24T13:13:36.408Z,52.96
2022-10-24T13:15:02.187Z,53.75
2022-10-24T13:16:16.183Z,53.88
2022-10-24T13:17:48.941Z,54.16
2022-10-24T13:19:11.990Z,54.20
2022-10-24T13:20:22.260Z,54.51
2022-10-24T13:21:32.314Z,53.97
2022-10-24T13:22:37.251Z,53.52
2022-10-24T13:23:39.246Z,53.73
2022-10-24T13:24:41.030Z,53.96
2022-10-24T13:25:44.136Z,54.44
2022-10-24T13:26:51.253Z,55.17
2022-10-24T13:28:20.088Z,55.50
2022-10-24T13:29:21.976Z,54.94
2022-10-24T13:30:27.237Z,55.09
2022-10-24T13:31:28.792Z,55.27
2022-10-24T13:32:35.893Z,55.29
2022-10-24T13:33:45.480Z,55.28
2022-10-24T13:34:56.644Z,54.85
2022-10-24T13:36:14.681Z,54.56
2022-10-24T13:37:31.442Z,54.66
2022-10-24T13:38:41.800Z,54.45
2022-10-24T13:39:50.220Z,54.89
2022-10-24T13:40:52.368Z,55.05
2022-10-24T13:42:03.142Z,55.50
2022-10-24T13:43:15.441Z,56.39
2022-10-24T13:44:43.786Z,57.07
2022-10-24T13:45:51.707Z,58.11
2022-10-24T13:47:07.529Z,59.02
2022-10-24T13:48:16.705Z,59.94
2022-10-24T13:49:36.366Z,60.30
2022-10-24T13:51:07.008Z,61.02
2022-10-24T13:52:28.810Z,61.84
2022-10-24T13:53:42.454Z,62.70
2022-10-24T13:54:51.254Z,63.25
2022-10-24T13:55:57.294Z,63.83
2022-10-24T13:57:02.004Z,64.46
2022-10-24T13:58:06.863Z,64.89
2022-10-24T13:59:28.293Z,65.53
2022-10-24T14:00:38.077Z,66.14
2022-10-24T14:01:41.323Z,66.70
2022-10-24T14:02:43.343Z,66.99
2022-10-24T14:03:46.695Z,67.41
2022-10-24T14:04:51.165Z,67.94
2022-10-24T14:05:59.853Z,68.24
2022-10-24T14:07:08.139Z,68.58
2022-10-24T14:08:20.604Z,69.02
2022-10-24T14:09:22.339Z,69.13
2022-10-24T14:10:25.418Z,69.62
2022-10-24T14:11:29.639Z,69.61
2022-10-24T14:12:34.172Z,69.97
2022-10-24T14:13:47.050Z,70.35
2022-10-24T14:14:52.514Z,70.83
2022-10-24T14:16:00.281Z,71.09
2022-10-24T14:17:23.265Z,71.59
2022-10-24T14:18:25.727Z,71.93
2022-10-24T14:19:31.971Z,72.15
2022-10-24T14:20:37.023Z,72.37
2022-10-24T14:21:45.808Z,72.80
2022-10-24T14:22:47.752Z,73.25